sensor_id;sensor_type;location;lat;lon;timestamp;pressure;altitude;pressure_sealevel;temperature;humidity
42289;BME280;30230;47.520;19.016;2023-02-19T00:00:34;99135.50;;;11.05;66.81
42289;BME280;30230;47.520;19.016;2023-02-19T00:02:35;99136.56;;;10.91;67.45
42289;BME280;30230;47.520;19.016;2023-02-19T00:04:35;99128.25;;;10.86;67.82
42289;BME280;30230;47.520;19.016;2023-02-19T00:06:36;99130.53;;;10.89;67.49
42289;BME280;30230;47.520;19.016;2023-02-19T00:08:37;99141.34;;;10.89;67.15
42289;BME280;30230;47.520;19.016;2023-02-19T00:10:38;99146.13;;;10.93;67.55
42289;BME280;30230;47.520;19.016;2023-02-19T00:12:38;99128.66;;;10.83;67.50
42289;BME280;30230;47.520;19.016;2023-02-19T00:14:38;99140.09;;;10.85;67.95
42289;BME280;30230;47.520;19.016;2023-02-19T00:16:39;99135.31;;;10.87;67.70
42289;BME280;30230;47.520;19.016;2023-02-19T00:18:40;99136.38;;;10.86;67.65
42289;BME280;30230;47.520;19.016;2023-02-19T00:20:41;99129.06;;;10.93;67.22
42289;BME280;30230;47.520;19.016;2023-02-19T00:22:41;99129.91;;;10.87;67.67
42289;BME280;30230;47.520;19.016;2023-02-19T00:24:41;99138.88;;;10.81;67.55
42289;BME280;30230;47.520;19.016;2023-02-19T00:26:42;99137.81;;;10.75;68.30
42289;BME280;30230;47.520;19.016;2023-02-19T00:28:44;99128.25;;;10.73;68.33
42289;BME280;30230;47.520;19.016;2023-02-19T00:30:44;99126.81;;;10.77;67.52
42289;BME280;30230;47.520;19.016;2023-02-19T00:32:49;99131.56;;;10.88;67.43
42289;BME280;30230;47.520;19.016;2023-02-19T00:34:49;99117.22;;;10.87;67.16
42289;BME280;30230;47.520;19.016;2023-02-19T00:36:50;99123.69;;;10.86;67.49
42289;BME280;30230;47.520;19.016;2023-02-19T00:38:50;99130.31;;;10.84;67.26
42289;BME280;30230;47.520;19.016;2023-02-19T00:40:51;99116.81;;;10.97;66.24
42289;BME280;30230;47.520;19.016;2023-02-19T00:42:52;99114.31;;;10.89;66.59
42289;BME280;30230;47.520;19.016;2023-02-19T00:44:52;99117.84;;;10.89;67.29
42289;BME280;30230;47.520;19.016;2023-02-19T00:46:52;99113.06;;;10.85;67.13
42289;BME280;30230;47.520;19.016;2023-02-19T00:48:54;99105.81;;;10.79;66.81
42289;BME280;30230;47.520;19.016;2023-02-19T00:50:55;99112.66;;;10.88;66.39
42289;BME280;30230;47.520;19.016;2023-02-19T00:52:55;99100.63;;;10.77;66.76
42289;BME280;30230;47.520;19.016;2023-02-19T00:54:56;99116.41;;;10.80;66.94
42289;BME280;30230;47.520;19.016;2023-02-19T00:56:56;99110.81;;;10.82;67.10
42289;BME280;30230;47.520;19.016;2023-02-19T00:58:56;99115.16;;;10.76;67.04
42289;BME280;30230;47.520;19.016;2023-02-19T01:00:57;99095.00;;;10.59;67.63
42289;BME280;30230;47.520;19.016;2023-02-19T01:02:57;99123.47;;;10.75;67.36
42289;BME280;30230;47.520;19.016;2023-02-19T01:04:58;99121.19;;;10.72;67.46
42289;BME280;30230;47.520;19.016;2023-02-19T01:06:58;99113.06;;;10.85;67.22
42289;BME280;30230;47.520;19.016;2023-02-19T01:08:59;99115.16;;;10.83;67.21
42289;BME280;30230;47.520;19.016;2023-02-19T01:11:00;99108.72;;;10.77;67.89
42289;BME280;30230;47.520;19.016;2023-02-19T01:13:01;99100.38;;;10.85;67.03
42289;BME280;30230;47.520;19.016;2023-02-19T01:15:01;99097.31;;;10.75;67.83
42289;BME280;30230;47.520;19.016;2023-02-19T01:17:02;99092.09;;;10.80;67.61
42289;BME280;30230;47.520;19.016;2023-02-19T01:19:03;99105.81;;;10.92;67.83
42289;BME280;30230;47.520;19.016;2023-02-19T01:21:23;99114.09;;;10.90;67.45
42289;BME280;30230;47.520;19.016;2023-02-19T01:23:23;99098.28;;;11.01;67.40
42289;BME280;30230;47.520;19.016;2023-02-19T01:25:24;99103.50;;;10.89;67.76
42289;BME280;30230;47.520;19.016;2023-02-19T01:27:24;99107.47;;;10.86;66.69
42289;BME280;30230;47.520;19.016;2023-02-19T01:29:25;99096.84;;;10.98;66.59
42289;BME280;30230;47.520;19.016;2023-02-19T01:31:26;99103.50;;;11.02;66.40
42289;BME280;30230;47.520;19.016;2023-02-19T01:33:26;99098.72;;;10.98;66.59
42289;BME280;30230;47.520;19.016;2023-02-19T01:35:27;99089.56;;;10.99;66.67
42289;BME280;30230;47.520;19.016;2023-02-19T01:37:27;99114.53;;;10.94;66.86
42289;BME280;30230;47.520;19.016;2023-02-19T01:39:28;99110.78;;;10.95;66.56
42289;BME280;30230;47.520;19.016;2023-02-19T01:41:28;99115.16;;;10.89;66.40
42289;BME280;30230;47.520;19.016;2023-02-19T01:43:31;99112.84;;;11.00;66.63
42289;BME280;30230;47.520;19.016;2023-02-19T01:45:42;99108.31;;;10.87;67.74
42289;BME280;30230;47.520;19.016;2023-02-19T01:47:44;99109.53;;;10.84;67.58
42289;BME280;30230;47.520;19.016;2023-02-19T01:49:53;99097.91;;;10.84;67.50
42289;BME280;30230;47.520;19.016;2023-02-19T01:52:12;99107.06;;;10.83;67.71
42289;BME280;30230;47.520;19.016;2023-02-19T01:54:16;99096.66;;;10.73;67.67
42289;BME280;30230;47.520;19.016;2023-02-19T01:56:19;99105.00;;;10.72;68.32
42289;BME280;30230;47.520;19.016;2023-02-19T01:58:20;99100.84;;;10.76;68.14
42289;BME280;30230;47.520;19.016;2023-02-19T02:00:22;99100.22;;;10.67;68.04
42289;BME280;30230;47.520;19.016;2023-02-19T02:02:24;99082.75;;;10.63;68.20
42289;BME280;30230;47.520;19.016;2023-02-19T02:04:29;99072.13;;;10.75;68.93
42289;BME280;30230;47.520;19.016;2023-02-19T02:06:33;99083.34;;;10.85;67.85
42289;BME280;30230;47.520;19.016;2023-02-19T02:08:35;99091.69;;;10.77;68.40
42289;BME280;30230;47.520;19.016;2023-02-19T02:10:56;99087.94;;;10.71;68.68
42289;BME280;30230;47.520;19.016;2023-02-19T02:12:57;99092.09;;;10.60;69.07
42289;BME280;30230;47.520;19.016;2023-02-19T02:14:57;99094.16;;;10.58;69.51
42289;BME280;30230;47.520;19.016;2023-02-19T02:28:34;99087.09;;;10.77;69.24
42289;BME280;30230;47.520;19.016;2023-02-19T02:31:09;99080.03;;;10.69;70.09
42289;BME280;30230;47.520;19.016;2023-02-19T02:35:40;99068.41;;;10.62;70.11
42289;BME280;30230;47.520;19.016;2023-02-19T02:37:44;99072.16;;;10.68;69.95
42289;BME280;30230;47.520;19.016;2023-02-19T02:39:45;99068.41;;;10.69;69.79
42289;BME280;30230;47.520;19.016;2023-02-19T02:41:53;99071.94;;;10.56;70.57
42289;BME280;30230;47.520;19.016;2023-02-19T02:44:13;99074.22;;;10.53;70.54
42289;BME280;30230;47.520;19.016;2023-02-19T02:46:25;99076.31;;;10.51;70.68
42289;BME280;30230;47.520;19.016;2023-02-19T02:48:54;99079.22;;;10.62;70.23
42289;BME280;30230;47.520;19.016;2023-02-19T02:53:03;99071.94;;;10.76;69.95
42289;BME280;30230;47.520;19.016;2023-02-19T02:55:24;99043.09;;;10.50;70.18
42289;BME280;30230;47.520;19.016;2023-02-19T02:57:25;99073.41;;;10.72;69.99
42289;BME280;30230;47.520;19.016;2023-02-19T02:59:28;99078.78;;;10.79;70.26
42289;BME280;30230;47.520;19.016;2023-02-19T03:04:05;99088.16;;;10.56;71.12
42289;BME280;30230;47.520;19.016;2023-02-19T03:06:07;99084.00;;;10.47;71.42
42289;BME280;30230;47.520;19.016;2023-02-19T03:08:14;99084.22;;;10.39;71.86
42289;BME280;30230;47.520;19.016;2023-02-19T03:10:21;99075.47;;;10.43;71.66
42289;BME280;30230;47.520;19.016;2023-02-19T03:12:24;99074.66;;;10.50;70.95
42289;BME280;30230;47.520;19.016;2023-02-19T03:14:48;99088.56;;;10.53;71.24
42289;BME280;30230;47.520;19.016;2023-02-19T03:17:17;99075.47;;;10.43;71.35
42289;BME280;30230;47.520;19.016;2023-02-19T03:19:42;99080.88;;;10.50;70.92
42289;BME280;30230;47.520;19.016;2023-02-19T03:21:57;99079.63;;;10.53;71.34
42289;BME280;30230;47.520;19.016;2023-02-19T03:23:58;99088.97;;;10.43;71.94
42289;BME280;30230;47.520;19.016;2023-02-19T03:26:18;99095.22;;;10.44;71.49
42289;BME280;30230;47.520;19.016;2023-02-19T03:28:22;99093.16;;;10.39;71.64
42289;BME280;30230;47.520;19.016;2023-02-19T03:30:49;99085.44;;;10.30;71.60
42289;BME280;30230;47.520;19.016;2023-02-19T03:35:12;99082.53;;;10.38;71.66
42289;BME280;30230;47.520;19.016;2023-02-19T03:37:37;99087.09;;;10.37;71.64
42289;BME280;30230;47.520;19.016;2023-02-19T03:39:40;99079.41;;;10.28;72.01
42289;BME280;30230;47.520;19.016;2023-02-19T03:42:59;99084.19;;;10.26;71.62
42289;BME280;30230;47.520;19.016;2023-02-19T03:46:52;99099.09;;;10.08;73.27
42289;BME280;30230;47.520;19.016;2023-02-19T03:48:59;99094.16;;;10.25;72.39
42289;BME280;30230;47.520;19.016;2023-02-19T03:51:23;99106.75;;;10.11;72.43
42289;BME280;30230;47.520;19.016;2023-02-19T03:53:46;99085.38;;;10.16;72.00
42289;BME280;30230;47.520;19.016;2023-02-19T03:56:10;99087.09;;;10.24;72.27
42289;BME280;30230;47.520;19.016;2023-02-19T03:58:22;99086.03;;;10.18;72.42
42289;BME280;30230;47.520;19.016;2023-02-19T04:02:59;99081.47;;;10.19;72.62
42289;BME280;30230;47.520;19.016;2023-02-19T04:05:09;99072.28;;;10.07;72.99
42289;BME280;30230;47.520;19.016;2023-02-19T04:07:12;99081.91;;;10.36;70.97
42289;BME280;30230;47.520;19.016;2023-02-19T04:09:13;99084.19;;;10.26;71.64
42289;BME280;30230;47.520;19.016;2023-02-19T04:11:15;99088.75;;;10.38;71.75
42289;BME280;30230;47.520;19.016;2023-02-19T04:13:24;99092.09;;;10.34;70.90
42289;BME280;30230;47.520;19.016;2023-02-19T04:15:30;99080.44;;;10.27;71.14
42289;BME280;30230;47.520;19.016;2023-02-19T04:17:38;99088.34;;;10.28;70.59
42289;BME280;30230;47.520;19.016;2023-02-19T04:19:41;99091.69;;;10.24;71.83
42289;BME280;30230;47.520;19.016;2023-02-19T04:21:43;99089.59;;;10.26;71.30
42289;BME280;30230;47.520;19.016;2023-02-19T04:23:45;99093.47;;;10.16;71.46
42289;BME280;30230;47.520;19.016;2023-02-19T04:25:49;99106.97;;;10.16;71.39
42289;BME280;30230;47.520;19.016;2023-02-19T04:27:51;99079.16;;;10.09;71.68
42289;BME280;30230;47.520;19.016;2023-02-19T04:29:52;99093.47;;;10.16;71.18
42289;BME280;30230;47.520;19.016;2023-02-19T04:31:52;99089.97;;;10.16;71.89
42289;BME280;30230;47.520;19.016;2023-02-19T04:33:53;99102.41;;;10.17;71.70
42289;BME280;30230;47.520;19.016;2023-02-19T04:35:53;99102.00;;;10.13;71.49
42289;BME280;30230;47.520;19.016;2023-02-19T04:37:54;99092.88;;;10.14;71.87
42289;BME280;30230;47.520;19.016;2023-02-19T04:39:54;99100.31;;;10.06;72.26
42289;BME280;30230;47.520;19.016;2023-02-19T04:41:54;99104.66;;;10.07;72.26
42289;BME280;30230;47.520;19.016;2023-02-19T04:43:55;99097.44;;;10.14;71.84
42289;BME280;30230;47.520;19.016;2023-02-19T04:45:59;99094.72;;;10.07;72.46
42289;BME280;30230;47.520;19.016;2023-02-19T04:48:00;99098.44;;;10.06;72.49
42289;BME280;30230;47.520;19.016;2023-02-19T04:50:00;99105.72;;;10.06;72.58
42289;BME280;30230;47.520;19.016;2023-02-19T04:52:01;99096.97;;;9.97;72.42
42289;BME280;30230;47.520;19.016;2023-02-19T04:54:01;99099.28;;;10.00;73.02
42289;BME280;30230;47.520;19.016;2023-02-19T04:56:10;99100.75;;;10.03;72.59
42289;BME280;30230;47.520;19.016;2023-02-19T04:58:11;99097.00;;;10.10;72.47
42289;BME280;30230;47.520;19.016;2023-02-19T05:00:12;99090.34;;;10.00;72.11
42289;BME280;30230;47.520;19.016;2023-02-19T05:02:12;99088.88;;;9.97;72.18
42289;BME280;30230;47.520;19.016;2023-02-19T05:04:13;99083.47;;;9.97;72.52
42289;BME280;30230;47.520;19.016;2023-02-19T05:06:13;99079.13;;;9.96;72.59
42289;BME280;30230;47.520;19.016;2023-02-19T05:08:14;99088.47;;;9.94;72.97
42289;BME280;30230;47.520;19.016;2023-02-19T05:10:14;99080.34;;;9.87;73.37
42289;BME280;30230;47.520;19.016;2023-02-19T05:12:15;99083.84;;;9.74;74.14
42289;BME280;30230;47.520;19.016;2023-02-19T05:14:15;99089.84;;;9.76;74.01
42289;BME280;30230;47.520;19.016;2023-02-19T05:16:16;99087.63;;;9.93;73.29
42289;BME280;30230;47.520;19.016;2023-02-19T05:18:17;99088.88;;;9.97;73.29
42289;BME280;30230;47.520;19.016;2023-02-19T05:20:17;99092.81;;;9.88;73.86
42289;BME280;30230;47.520;19.016;2023-02-19T05:22:18;99084.50;;;9.83;74.41
42289;BME280;30230;47.520;19.016;2023-02-19T05:24:18;99092.59;;;9.89;74.26
42289;BME280;30230;47.520;19.016;2023-02-19T05:26:21;99089.91;;;9.83;75.27
42289;BME280;30230;47.520;19.016;2023-02-19T05:28:22;99088.22;;;9.82;75.85
42289;BME280;30230;47.520;19.016;2023-02-19T05:30:27;99088.63;;;9.79;76.47
42289;BME280;30230;47.520;19.016;2023-02-19T05:32:28;99098.59;;;9.85;76.51
42289;BME280;30230;47.520;19.016;2023-02-19T05:34:28;99087.19;;;9.83;77.10
42289;BME280;30230;47.520;19.016;2023-02-19T05:36:29;99080.31;;;9.74;77.19
42289;BME280;30230;47.520;19.016;2023-02-19T05:38:29;99091.94;;;9.81;77.84
42289;BME280;30230;47.520;19.016;2023-02-19T05:40:30;99086.97;;;9.78;78.11
42289;BME280;30230;47.520;19.016;2023-02-19T05:42:30;99088.41;;;9.74;79.49
42289;BME280;30230;47.520;19.016;2023-02-19T05:44:30;99085.91;;;9.72;79.81
42289;BME280;30230;47.520;19.016;2023-02-19T05:46:31;99080.53;;;9.72;80.10
42289;BME280;30230;47.520;19.016;2023-02-19T05:48:32;99079.66;;;9.72;80.57
42289;BME280;30230;47.520;19.016;2023-02-19T05:50:34;99087.19;;;9.83;80.48
42289;BME280;30230;47.520;19.016;2023-02-19T05:52:34;99089.25;;;9.81;80.50
42289;BME280;30230;47.520;19.016;2023-02-19T05:54:35;99091.72;;;9.76;80.99
42289;BME280;30230;47.520;19.016;2023-02-19T05:56:37;99091.50;;;9.71;81.57
42289;BME280;30230;47.520;19.016;2023-02-19T05:58:39;99092.31;;;9.71;81.89
42289;BME280;30230;47.520;19.016;2023-02-19T06:00:39;99087.38;;;9.75;82.41
42289;BME280;30230;47.520;19.016;2023-02-19T06:02:39;99087.56;;;9.73;83.05
42289;BME280;30230;47.520;19.016;2023-02-19T06:04:40;99098.75;;;9.63;84.62
42289;BME280;30230;47.520;19.016;2023-02-19T06:06:41;99105.59;;;9.66;84.99
42289;BME280;30230;47.520;19.016;2023-02-19T06:08:41;99097.72;;;9.71;87.25
42289;BME280;30230;47.520;19.016;2023-02-19T06:10:42;99089.22;;;9.68;87.61
42289;BME280;30230;47.520;19.016;2023-02-19T06:12:43;99097.50;;;9.66;87.46
42289;BME280;30230;47.520;19.016;2023-02-19T06:14:43;99087.75;;;9.65;87.60
42289;BME280;30230;47.520;19.016;2023-02-19T06:16:44;99091.03;;;9.60;88.68
42289;BME280;30230;47.520;19.016;2023-02-19T06:18:45;99080.84;;;9.56;89.00
42289;BME280;30230;47.520;19.016;2023-02-19T06:20:45;99066.97;;;9.52;89.02
42289;BME280;30230;47.520;19.016;2023-02-19T06:22:48;99061.34;;;9.47;88.84
42289;BME280;30230;47.520;19.016;2023-02-19T06:24:49;99065.31;;;9.51;88.63
42289;BME280;30230;47.520;19.016;2023-02-19T06:26:49;99076.94;;;9.58;89.30
42289;BME280;30230;47.520;19.016;2023-02-19T06:28:51;99076.94;;;9.58;89.93
42289;BME280;30230;47.520;19.016;2023-02-19T06:30:52;99072.38;;;9.52;91.02
42289;BME280;30230;47.520;19.016;2023-02-19T06:32:52;99076.50;;;9.55;91.51
42289;BME280;30230;47.520;19.016;2023-02-19T06:34:53;99066.97;;;9.52;91.46
42289;BME280;30230;47.520;19.016;2023-02-19T06:36:53;99044.97;;;9.49;91.69
42289;BME280;30230;47.520;19.016;2023-02-19T06:38:58;99052.25;;;9.55;92.05
42289;BME280;30230;47.520;19.016;2023-02-19T06:41:00;99051.25;;;9.62;91.92
42289;BME280;30230;47.520;19.016;2023-02-19T06:43:01;99061.00;;;9.70;91.73
42289;BME280;30230;47.520;19.016;2023-02-19T06:45:01;99054.09;;;9.54;92.91
42289;BME280;30230;47.520;19.016;2023-02-19T06:47:01;99041.88;;;9.58;92.55
42289;BME280;30230;47.520;19.016;2023-02-19T06:49:03;99058.91;;;9.65;91.85
42289;BME280;30230;47.520;19.016;2023-02-19T06:51:03;99051.66;;;9.66;91.04
42289;BME280;30230;47.520;19.016;2023-02-19T06:53:04;99072.84;;;9.76;91.21
42289;BME280;30230;47.520;19.016;2023-02-19T06:55:04;99064.97;;;9.81;90.59
42289;BME280;30230;47.520;19.016;2023-02-19T06:57:05;99057.09;;;9.73;91.48
42289;BME280;30230;47.520;19.016;2023-02-19T06:59:09;99060.41;;;9.75;91.03
42289;BME280;30230;47.520;19.016;2023-02-19T07:01:10;99059.56;;;9.68;91.44
42289;BME280;30230;47.520;19.016;2023-02-19T07:03:10;99061.66;;;9.72;91.12
42289;BME280;30230;47.520;19.016;2023-02-19T07:05:11;99064.72;;;9.69;90.72
42289;BME280;30230;47.520;19.016;2023-02-19T07:07:11;99071.78;;;9.63;91.45
42289;BME280;30230;47.520;19.016;2023-02-19T07:09:11;99077.78;;;9.65;91.30
42289;BME280;30230;47.520;19.016;2023-02-19T07:11:12;99061.19;;;9.62;91.06
42289;BME280;30230;47.520;19.016;2023-02-19T07:13:12;99085.03;;;9.65;91.28
42289;BME280;30230;47.520;19.016;2023-02-19T07:15:12;99072.22;;;9.67;91.20
42289;BME280;30230;47.520;19.016;2023-02-19T07:17:13;99068.69;;;9.73;90.57
42289;BME280;30230;47.520;19.016;2023-02-19T07:19:14;99074.09;;;9.73;90.45
42289;BME280;30230;47.520;19.016;2023-02-19T07:21:15;99072.84;;;9.76;90.04
42289;BME280;30230;47.520;19.016;2023-02-19T07:23:16;99069.09;;;9.77;89.17
42289;BME280;30230;47.520;19.016;2023-02-19T07:25:16;99059.78;;;9.79;89.84
42289;BME280;30230;47.520;19.016;2023-02-19T07:27:17;99054.63;;;9.91;88.39
42289;BME280;30230;47.520;19.016;2023-02-19T07:29:17;99052.56;;;10.00;87.86
42289;BME280;30230;47.520;19.016;2023-02-19T07:31:19;99054.88;;;10.09;87.04
42289;BME280;30230;47.520;19.016;2023-02-19T07:33:22;99053.44;;;10.13;88.63
42289;BME280;30230;47.520;19.016;2023-02-19T07:35:23;99052.16;;;10.23;87.43
42289;BME280;30230;47.520;19.016;2023-02-19T07:37:23;99049.69;;;10.21;86.55
42289;BME280;30230;47.520;19.016;2023-02-19T07:39:24;99040.75;;;10.14;86.97
42289;BME280;30230;47.520;19.016;2023-02-19T07:41:26;99044.69;;;10.18;86.88
42289;BME280;30230;47.520;19.016;2023-02-19T07:43:29;99054.44;;;10.12;87.04
42289;BME280;30230;47.520;19.016;2023-02-19T07:45:29;99053.00;;;10.16;87.34
42289;BME280;30230;47.520;19.016;2023-02-19T07:47:30;99053.63;;;10.18;87.62
42289;BME280;30230;47.520;19.016;2023-02-19T07:49:30;99049.47;;;10.23;87.44
42289;BME280;30230;47.520;19.016;2023-02-19T07:51:32;99062.13;;;10.15;88.70
42289;BME280;30230;47.520;19.016;2023-02-19T07:53:33;99056.09;;;10.00;90.62
42289;BME280;30230;47.520;19.016;2023-02-19T07:55:34;99053.81;;;10.10;90.64
42289;BME280;30230;47.520;19.016;2023-02-19T07:57:34;99062.75;;;10.17;89.73
42289;BME280;30230;47.520;19.016;2023-02-19T07:59:35;99070.22;;;10.22;90.57
42289;BME280;30230;47.520;19.016;2023-02-19T08:01:35;99060.28;;;10.09;89.43
42289;BME280;30230;47.520;19.016;2023-02-19T08:03:54;99076.66;;;10.08;90.38
42289;BME280;30230;47.520;19.016;2023-02-19T08:05:56;99082.91;;;10.15;88.93
42289;BME280;30230;47.520;19.016;2023-02-19T08:07:57;99080.38;;;10.00;90.81
42289;BME280;30230;47.520;19.016;2023-02-19T08:09:58;99091.56;;;9.97;92.83
42289;BME280;30230;47.520;19.016;2023-02-19T08:12:18;99088.47;;;10.07;93.38
42289;BME280;30230;47.520;19.016;2023-02-19T08:14:37;99086.00;;;9.99;95.14
42289;BME280;30230;47.520;19.016;2023-02-19T08:16:38;99083.25;;;9.92;97.47
42289;BME280;30230;47.520;19.016;2023-02-19T08:20:42;99095.72;;;9.93;99.12
42289;BME280;30230;47.520;19.016;2023-02-19T08:22:43;99097.81;;;9.98;100.00
42289;BME280;30230;47.520;19.016;2023-02-19T08:24:43;99095.47;;;9.75;100.00
42289;BME280;30230;47.520;19.016;2023-02-19T08:26:44;99087.75;;;9.65;100.00
42289;BME280;30230;47.520;19.016;2023-02-19T08:28:45;99102.28;;;9.71;100.00
42289;BME280;30230;47.520;19.016;2023-02-19T08:30:46;99111.97;;;9.52;100.00
42289;BME280;30230;47.520;19.016;2023-02-19T08:32:46;99106.00;;;9.63;100.00
42289;BME280;30230;47.520;19.016;2023-02-19T08:34:47;99087.34;;;9.61;100.00
42289;BME280;30230;47.520;19.016;2023-02-19T08:36:47;99092.31;;;9.64;100.00
42289;BME280;30230;47.520;19.016;2023-02-19T08:38:48;99089.41;;;9.66;100.00
42289;BME280;30230;47.520;19.016;2023-02-19T08:40:48;99085.03;;;9.58;100.00
42289;BME280;30230;47.520;19.016;2023-02-19T08:42:48;99075.25;;;9.51;100.00
42289;BME280;30230;47.520;19.016;2023-02-19T08:44:49;99075.88;;;9.53;100.00
42289;BME280;30230;47.520;19.016;2023-02-19T08:46:49;99078.34;;;9.41;100.00
42289;BME280;30230;47.520;19.016;2023-02-19T08:48:50;99082.16;;;9.67;100.00
42289;BME280;30230;47.520;19.016;2023-02-19T08:50:59;99081.50;;;9.58;100.00
42289;BME280;30230;47.520;19.016;2023-02-19T08:53:00;99068.84;;;9.52;100.00
42289;BME280;30230;47.520;19.016;2023-02-19T08:55:05;99080.44;;;9.52;100.00
42289;BME280;30230;47.520;19.016;2023-02-19T08:57:05;99075.06;;;9.52;100.00
42289;BME280;30230;47.520;19.016;2023-02-19T08:59:06;99080.22;;;9.47;100.00
42289;BME280;30230;47.520;19.016;2023-02-19T09:01:14;99077.69;;;9.39;100.00
42289;BME280;30230;47.520;19.016;2023-02-19T09:03:15;99092.03;;;9.46;100.00
42289;BME280;30230;47.520;19.016;2023-02-19T09:05:16;99074.16;;;9.38;100.00
42289;BME280;30230;47.520;19.016;2023-02-19T09:07:16;99066.47;;;9.35;100.00
42289;BME280;30230;47.520;19.016;2023-02-19T09:09:17;99072.94;;;9.41;100.00
42289;BME280;30230;47.520;19.016;2023-02-19T09:11:17;99091.16;;;9.39;100.00
42289;BME280;30230;47.520;19.016;2023-02-19T09:13:18;99073.19;;;9.46;100.00
42289;BME280;30230;47.520;19.016;2023-02-19T09:15:18;99070.44;;;9.39;100.00
42289;BME280;30230;47.520;19.016;2023-02-19T09:17:19;99062.31;;;9.33;100.00
42289;BME280;30230;47.520;19.016;2023-02-19T09:19:19;99065.41;;;9.30;100.00
42289;BME280;30230;47.520;19.016;2023-02-19T09:21:19;99071.41;;;9.25;100.00
42289;BME280;30230;47.520;19.016;2023-02-19T09:23:20;99068.72;;;9.25;100.00
42289;BME280;30230;47.520;19.016;2023-02-19T09:25:20;99059.84;;;9.38;100.00
42289;BME280;30230;47.520;19.016;2023-02-19T09:27:21;99061.50;;;9.32;100.00
42289;BME280;30230;47.520;19.016;2023-02-19T09:29:23;99068.59;;;9.47;100.00
42289;BME280;30230;47.520;19.016;2023-02-19T09:31:24;99058.59;;;9.40;100.00
42289;BME280;30230;47.520;19.016;2023-02-19T09:33:25;99064.41;;;9.37;100.00
42289;BME280;30230;47.520;19.016;2023-02-19T09:35:25;99054.22;;;9.33;100.00
42289;BME280;30230;47.520;19.016;2023-02-19T09:37:26;99064.22;;;9.39;100.00
42289;BME280;30230;47.520;19.016;2023-02-19T09:39:27;99063.22;;;9.47;100.00
42289;BME280;30230;47.520;19.016;2023-02-19T09:41:57;99060.91;;;9.44;100.00
42289;BME280;30230;47.520;19.016;2023-02-19T09:44:03;99060.09;;;9.50;100.00
42289;BME280;30230;47.520;19.016;2023-02-19T09:46:10;99054.94;;;9.55;100.00
42289;BME280;30230;47.520;19.016;2023-02-19T09:48:17;99057.09;;;9.73;100.00
42289;BME280;30230;47.520;19.016;2023-02-19T09:50:20;99039.72;;;10.08;100.00
42289;BME280;30230;47.520;19.016;2023-02-19T09:52:39;99047.44;;;10.38;100.00
42289;BME280;30230;47.520;19.016;2023-02-19T09:54:41;99046.19;;;10.54;100.00
42289;BME280;30230;47.520;19.016;2023-02-19T09:56:42;99056.16;;;10.40;100.00
42289;BME280;30230;47.520;19.016;2023-02-19T09:58:47;99040.16;;;10.32;100.00
42289;BME280;30230;47.520;19.016;2023-02-19T10:00:50;99019.81;;;10.36;100.00
42289;BME280;30230;47.520;19.016;2023-02-19T10:02:52;99032.06;;;10.32;100.00
42289;BME280;30230;47.520;19.016;2023-02-19T10:04:53;99023.94;;;10.58;100.00
42289;BME280;30230;47.520;19.016;2023-02-19T10:06:54;99025.13;;;10.95;100.00
42289;BME280;30230;47.520;19.016;2023-02-19T10:09:20;99010.13;;;11.13;100.00
42289;BME280;30230;47.520;19.016;2023-02-19T10:11:22;99003.22;;;11.24;100.00
42289;BME280;30230;47.520;19.016;2023-02-19T10:15:35;98994.56;;;11.53;95.13
42289;BME280;30230;47.520;19.016;2023-02-19T10:17:37;99001.25;;;11.44;95.03
42289;BME280;30230;47.520;19.016;2023-02-19T10:19:38;99000.28;;;11.70;96.92
42289;BME280;30230;47.520;19.016;2023-02-19T10:21:38;98996.47;;;11.78;94.60
42289;BME280;30230;47.520;19.016;2023-02-19T10:32:29;98974.78;;;11.91;89.41
42289;BME280;30230;47.520;19.016;2023-02-19T10:34:29;98974.19;;;11.89;89.08
42289;BME280;30230;47.520;19.016;2023-02-19T10:36:37;98971.00;;;11.92;91.15
42289;BME280;30230;47.520;19.016;2023-02-19T10:38:44;98970.47;;;11.77;89.30
42289;BME280;30230;47.520;19.016;2023-02-19T10:40:46;98972.75;;;11.73;88.78
42289;BME280;30230;47.520;19.016;2023-02-19T10:42:49;98967.50;;;11.53;89.28
42289;BME280;30230;47.520;19.016;2023-02-19T10:44:57;98951.72;;;11.82;89.06
42289;BME280;30230;47.520;19.016;2023-02-19T10:47:01;98959.22;;;12.11;86.38
42289;BME280;30230;47.520;19.016;2023-02-19T10:49:04;98950.03;;;12.12;85.96
42289;BME280;30230;47.520;19.016;2023-02-19T10:51:07;98956.91;;;12.33;85.80
42289;BME280;30230;47.520;19.016;2023-02-19T10:53:19;98955.69;;;12.54;86.06
42289;BME280;30230;47.520;19.016;2023-02-19T10:57:29;98947.22;;;13.17;84.04
42289;BME280;30230;47.520;19.016;2023-02-19T10:59:32;98948.59;;;13.45;81.52
42289;BME280;30230;47.520;19.016;2023-02-19T11:01:32;98932.66;;;13.48;79.88
42289;BME280;30230;47.520;19.016;2023-02-19T11:03:32;98937.66;;;13.63;76.53
42289;BME280;30230;47.520;19.016;2023-02-19T11:05:35;98916.81;;;13.75;74.78
42289;BME280;30230;47.520;19.016;2023-02-19T11:07:38;98928.28;;;13.89;76.03
42289;BME280;30230;47.520;19.016;2023-02-19T11:09:44;98930.56;;;14.04;74.15
42289;BME280;30230;47.520;19.016;2023-02-19T11:11:49;98904.59;;;14.08;69.33
42289;BME280;30230;47.520;19.016;2023-02-19T11:13:53;98925.41;;;14.38;69.58
42289;BME280;30230;47.520;19.016;2023-02-19T11:15:55;98929.97;;;14.25;67.92
42289;BME280;30230;47.520;19.016;2023-02-19T11:18:04;98938.38;;;14.12;70.18
42289;BME280;30230;47.520;19.016;2023-02-19T11:20:13;98931.00;;;13.89;70.77
42289;BME280;30230;47.520;19.016;2023-02-19T11:24:28;98927.69;;;13.75;71.39
42289;BME280;30230;47.520;19.016;2023-02-19T11:26:31;98918.50;;;14.00;69.64
42289;BME280;30230;47.520;19.016;2023-02-19T11:28:36;98912.16;;;14.29;68.79
42289;BME280;30230;47.520;19.016;2023-02-19T11:30:42;98906.84;;;14.34;66.32